Time;durP1;ratioP1;P1;durP2;ratioP2;P2;SDS_P1;SDS_P2;PMS_P1;PMS_P2;Temp;Humidity;BMP_temperature;BMP_pressure;BME280_temperature;BME280_humidity;BME280_pressure;Samples;Min_cycle;Max_cycle;Signal;HPM_P1;HPM_P2
2022/08/09 00:00:28;;;;;;;5.43;2.28;;;13.20;99.90;;;;;;5073513;28;20021;-71
2022/08/09 00:02:54;;;;;;;4.85;2.00;;;13.20;99.90;;;;;;5072677;28;20452;-72
2022/08/09 00:05:20;;;;;;;3.83;2.00;;;13.10;99.90;;;;;;5072908;28;20028;-72
2022/08/09 00:07:46;;;;;;;2.70;2.15;;;13.10;99.90;;;;;;5072746;28;20041;-72
2022/08/09 00:10:12;;;;;;;4.15;2.08;;;13.10;99.90;;;;;;5073018;28;20527;-72
2022/08/09 00:12:37;;;;;;;5.05;1.65;;;13.10;99.90;;;;;;5073062;28;20036;-72
2022/08/09 00:15:04;;;;;;;3.15;1.77;;;13.00;99.90;;;;;;5071452;28;20495;-72
2022/08/09 00:17:29;;;;;;;2.97;2.03;;;13.00;99.90;;;;;;5088725;22;20033;-82
2022/08/09 00:19:55;;;;;;;4.03;2.20;;;13.00;99.90;;;;;;5056837;28;20486;-83
2022/08/09 00:22:21;;;;;;;2.53;2.25;;;12.90;99.90;;;;;;5053704;28;20062;-82
2022/08/09 00:24:47;;;;;;;6.10;2.40;;;12.90;99.90;;;;;;5065345;28;20021;-82
2022/08/09 00:27:12;;;;;;;4.70;1.90;;;12.80;99.90;;;;;;5072606;28;20083;-83
2022/08/09 00:29:38;;;;;;;2.30;2.00;;;12.80;99.90;;;;;;5054592;28;20507;-83
2022/08/09 00:32:04;;;;;;;3.60;1.50;;;12.70;99.90;;;;;;5054553;28;20013;-82
2022/08/09 00:34:29;;;;;;;2.20;2.05;;;12.70;99.90;;;;;;5072649;28;20466;-82
2022/08/09 00:36:55;;;;;;;1.95;1.77;;;12.70;99.90;;;;;;5072438;28;20042;-83
2022/08/09 00:39:21;;;;;;;1.77;1.63;;;12.60;99.90;;;;;;5054559;28;20016;-83
2022/08/09 00:41:48;;;;;;;2.75;2.15;;;12.60;99.90;;;;;;5054386;28;20028;-83
2022/08/09 00:44:14;;;;;;;3.50;1.80;;;12.60;99.90;;;;;;5072197;28;20020;-83
2022/08/09 00:46:42;;;;;;;2.20;2.00;;;12.60;99.90;;;;;;5072081;28;20020;-83
2022/08/09 00:49:08;;;;;;;1.67;1.58;;;12.60;99.90;;;;;;5071818;28;20012;-83
2022/08/09 00:51:34;;;;;;;2.50;1.65;;;12.60;99.90;;;;;;5071783;28;20017;-83
2022/08/09 00:54:00;;;;;;;4.07;1.75;;;12.50;99.90;;;;;;5054571;28;20063;-81
2022/08/09 00:56:26;;;;;;;2.28;1.73;;;12.40;99.90;;;;;;5053951;28;20056;-83
2022/08/09 00:58:51;;;;;;;3.75;1.90;;;12.40;99.90;;;;;;5053966;28;20556;-82
2022/08/09 01:01:26;;;;;;;2.85;1.83;;;12.40;99.90;;;;;;5071995;28;20017;-82
2022/08/09 01:04:18;;;;;;;2.05;1.60;;;12.30;99.90;;;;;;5054170;28;20060;-83
2022/08/09 01:06:56;;;;;;;;;;;12.40;99.90;;;;;;5066133;28;20024;-82
2022/08/09 01:09:41;;;;;;;1.70;1.58;;;12.30;99.90;;;;;;5046936;28;19915;-82
2022/08/09 01:12:18;;;;;;;2.75;1.60;;;12.30;99.90;;;;;;5071442;28;20025;-83
2022/08/09 01:14:51;;;;;;;2.03;1.80;;;12.30;99.90;;;;;;5071670;28;20469;-83
2022/08/09 01:17:39;;;;;;;1.80;1.70;;;12.20;99.90;;;;;;5071358;28;20119;-83
2022/08/09 01:20:21;;;;;;;2.25;1.90;;;12.20;99.90;;;;;;5071264;28;20032;-83
2022/08/09 01:23:06;;;;;;;;;;;12.20;99.90;;;;;;5072146;28;20100;-83
2022/08/09 01:26:00;;;;;;;2.75;1.95;;;12.20;99.90;;;;;;5070960;28;19904;-82
2022/08/09 01:28:26;;;;;;;2.88;1.80;;;12.10;99.90;;;;;;5053752;28;20025;-83
2022/08/09 01:30:56;;;;;;;2.72;1.70;;;12.10;99.90;;;;;;5071471;28;21383;-83
2022/08/09 01:33:25;;;;;;;4.07;2.10;;;12.10;99.90;;;;;;5071209;28;20498;-83
2022/08/09 01:36:02;;;;;;;2.50;2.28;;;12.10;99.90;;;;;;5071352;28;20020;-83
2022/08/09 01:38:33;;;;;;;2.58;1.73;;;12.10;99.90;;;;;;5046824;28;20013;-83
2022/08/09 01:41:12;;;;;;;3.28;1.65;;;12.10;99.90;;;;;;5053585;28;20024;-83
2022/08/09 01:43:42;;;;;;;3.92;2.15;;;12.10;99.90;;;;;;5052938;28;20025;-83
2022/08/09 01:46:10;;;;;;;3.67;1.88;;;12.10;99.90;;;;;;5070385;23;20040;-72
2022/08/09 01:48:36;;;;;;;3.08;2.15;;;12.10;99.90;;;;;;5069876;28;20036;-72
2022/08/09 01:51:02;;;;;;;2.65;2.17;;;12.10;99.90;;;;;;5070141;28;20021;-72
2022/08/09 01:53:29;;;;;;;2.33;2.05;;;12.10;99.90;;;;;;5070427;28;20035;-72
2022/08/09 01:55:56;;;;;;;2.75;2.05;;;12.10;99.90;;;;;;5069961;28;20016;-72
2022/08/09 01:58:25;;;;;;;2.22;2.00;;;12.10;99.90;;;;;;5070979;28;20056;-72
2022/08/09 02:00:53;;;;;;;4.07;2.10;;;12.00;99.90;;;;;;5070809;28;20363;-72
2022/08/09 02:03:20;;;;;;;3.13;1.90;;;12.00;99.90;;;;;;5071147;28;20035;-72
2022/08/09 02:05:48;;;;;;;2.58;2.00;;;12.00;99.90;;;;;;5071207;28;20021;-72
2022/08/09 02:08:17;;;;;;;5.15;2.42;;;12.00;99.90;;;;;;5070811;28;20060;-72
2022/08/09 02:10:46;;;;;;;2.45;2.20;;;11.90;99.90;;;;;;5070866;28;20138;-72
2022/08/09 02:13:13;;;;;;;2.35;1.95;;;11.90;99.90;;;;;;5071121;28;20028;-72
2022/08/09 02:15:44;;;;;;;4.05;2.10;;;11.90;99.90;;;;;;5052398;28;20104;-72
2022/08/09 02:18:12;;;;;;;2.43;2.23;;;11.80;99.90;;;;;;5069957;28;20119;-73
2022/08/09 02:20:42;;;;;;;2.03;1.85;;;11.80;99.90;;;;;;5070346;28;20303;-72
2022/08/09 02:23:26;;;;;;;5.10;2.13;;;11.80;99.90;;;;;;5070533;28;20162;-72
2022/08/09 02:25:54;;;;;;;2.50;2.22;;;11.70;99.90;;;;;;5064612;28;20050;-71
2022/08/09 02:28:48;;;;;;;2.20;1.88;;;11.70;99.90;;;;;;5070459;28;20116;-72
2022/08/09 02:31:24;;;;;;;5.22;2.40;;;11.70;99.90;;;;;;5059013;28;20446;-72
2022/08/09 02:33:54;;;;;;;4.88;2.20;;;11.70;99.90;;;;;;5070677;28;20024;-72
2022/08/09 02:36:32;;;;;;;2.53;2.25;;;11.70;99.90;;;;;;5070246;28;20063;-72
2022/08/09 02:39:03;;;;;;;3.00;2.10;;;11.70;99.90;;;;;;5070429;28;20021;-72
2022/08/09 02:41:39;;;;;;;2.95;2.40;;;11.70;99.90;;;;;;5069914;28;20073;-72
2022/08/09 02:44:10;;;;;;;4.60;2.58;;;11.70;99.90;;;;;;5065113;28;20023;-72
2022/08/09 02:46:38;;;;;;;4.10;2.13;;;11.60;99.90;;;;;;5086482;22;20394;-79
2022/08/09 02:49:09;;;;;;;2.88;2.45;;;11.60;99.90;;;;;;5070122;28;20055;-80
2022/08/09 02:51:37;;;;;;;5.70;2.40;;;11.60;99.90;;;;;;5051621;28;20126;-79
2022/08/09 02:54:05;;;;;;;3.22;2.20;;;11.60;99.90;;;;;;5069812;28;20028;-79
2022/08/09 02:56:32;;;;;;;3.00;2.45;;;11.60;99.90;;;;;;5069466;28;20025;-80
2022/08/09 02:59:00;;;;;;;2.40;2.20;;;11.60;99.90;;;;;;5070174;28;20074;-80
2022/08/09 03:01:28;;;;;;;2.47;2.28;;;11.60;99.90;;;;;;5069981;28;20015;-79
2022/08/09 03:03:54;;;;;;;3.10;2.17;;;11.70;99.90;;;;;;5070255;28;20028;-79
2022/08/09 03:06:22;;;;;;;3.20;2.90;;;11.70;99.90;;;;;;5069525;28;20025;-79
2022/08/09 03:08:50;;;;;;;3.63;2.40;;;11.70;99.90;;;;;;5070219;28;20016;-80
2022/08/09 03:11:19;;;;;;;3.10;2.33;;;11.60;99.90;;;;;;5070318;28;20017;-79
2022/08/09 03:13:46;;;;;;;3.80;2.70;;;11.60;99.90;;;;;;5070099;28;20021;-80
2022/08/09 03:16:19;;;;;;;5.88;2.60;;;11.60;99.90;;;;;;5051527;28;20029;-80
2022/08/09 03:18:49;;;;;;;6.43;2.40;;;11.70;99.90;;;;;;5051743;28;20024;-79
2022/08/09 03:21:16;;;;;;;3.20;2.55;;;11.60;99.90;;;;;;5063226;28;20028;-79
2022/08/09 03:23:45;;;;;;;4.22;2.40;;;11.60;99.90;;;;;;5069893;28;20104;-79
2022/08/09 03:26:15;;;;;;;3.90;2.40;;;11.60;99.90;;;;;;5069623;28;20024;-79
2022/08/09 03:28:42;;;;;;;3.53;2.28;;;11.50;99.90;;;;;;5052575;28;20063;-79
2022/08/09 03:31:09;;;;;;;3.95;3.05;;;11.60;99.90;;;;;;5069789;28;20017;-79
2022/08/09 03:33:36;;;;;;;4.63;2.08;;;11.50;99.90;;;;;;5070012;28;20078;-79
2022/08/09 03:36:02;;;;;;;3.22;2.50;;;11.60;99.90;;;;;;5069227;28;20020;-79
2022/08/09 03:38:29;;;;;;;4.72;2.10;;;11.60;99.90;;;;;;5069805;28;20025;-80
2022/08/09 03:40:55;;;;;;;3.30;2.60;;;11.60;99.90;;;;;;5069177;28;20029;-79
2022/08/09 03:43:20;;;;;;;5.95;2.22;;;11.50;99.90;;;;;;5051741;28;20687;-79
2022/08/09 03:48:14;;;;;;;3.55;2.50;;;11.60;99.90;;;;;;4969135;28;20065;-72
2022/08/09 03:50:41;;;;;;;3.97;2.30;;;11.60;99.90;;;;;;4972277;28;20062;-72
2022/08/09 03:53:08;;;;;;;2.63;2.33;;;11.50;99.90;;;;;;4972142;28;20096;-72
2022/08/09 03:55:35;;;;;;;8.40;2.97;;;11.50;99.90;;;;;;4972187;28;20029;-72
2022/08/09 03:58:01;;;;;;;6.10;2.50;;;11.40;99.90;;;;;;4971987;28;20092;-72
2022/08/09 04:00:27;;;;;;;5.35;2.92;;;11.40;99.90;;;;;;4972257;28;20460;-72
2022/08/09 04:02:55;;;;;;;4.53;2.58;;;11.40;99.90;;;;;;4971721;28;20119;-72
2022/08/09 04:05:21;;;;;;;2.60;2.38;;;11.40;99.90;;;;;;4970677;28;20030;-72
2022/08/09 04:07:46;;;;;;;4.72;2.55;;;11.40;99.90;;;;;;4971700;28;20031;-72
2022/08/09 04:10:14;;;;;;;3.10;2.25;;;11.50;99.90;;;;;;4971589;28;20023;-72
2022/08/09 04:12:42;;;;;;;3.40;2.50;;;11.50;99.90;;;;;;4971031;28;20023;-72
2022/08/09 04:15:08;;;;;;;3.65;2.83;;;11.50;99.90;;;;;;4971874;28;20031;-72
2022/08/09 04:17:34;;;;;;;3.05;2.35;;;11.50;99.90;;;;;;4971176;28;20058;-72
2022/08/09 04:20:00;;;;;;;3.35;2.60;;;11.50;99.90;;;;;;4971861;28;20077;-72
2022/08/09 04:22:25;;;;;;;2.30;2.10;;;11.50;99.90;;;;;;4971826;28;20488;-72
2022/08/09 04:24:51;;;;;;;4.93;2.67;;;11.40;99.90;;;;;;4971797;28;20029;-72
2022/08/09 04:27:17;;;;;;;4.10;2.92;;;11.40;99.90;;;;;;4971351;28;20027;-72
2022/08/09 04:29:43;;;;;;;4.28;2.65;;;11.50;99.90;;;;;;4971095;28;20025;-72
2022/08/09 04:32:08;;;;;;;3.22;2.53;;;11.50;99.90;;;;;;4970545;28;20460;-72
2022/08/09 04:34:34;;;;;;;4.35;3.15;;;11.50;99.90;;;;;;4971681;28;20007;-72
2022/08/09 04:37:00;;;;;;;4.28;3.10;;;11.60;99.90;;;;;;4971356;28;20035;-72
2022/08/09 04:39:26;;;;;;;3.60;2.90;;;11.60;99.90;;;;;;4971408;28;20018;-72
2022/08/09 04:41:53;;;;;;;5.18;2.95;;;11.60;99.90;;;;;;4970988;28;20031;-72
2022/08/09 04:44:19;;;;;;;4.18;2.85;;;11.60;99.90;;;;;;4971244;28;20099;-72
2022/08/09 04:46:44;;;;;;;5.68;3.53;;;11.60;99.90;;;;;;4992288;22;20129;-80
2022/08/09 04:49:10;;;;;;;3.08;2.63;;;11.60;99.90;;;;;;4990493;28;20475;-80
2022/08/09 04:51:36;;;;;;;3.92;3.05;;;11.50;99.90;;;;;;5075048;28;20018;-80
2022/08/09 04:54:02;;;;;;;5.13;3.30;;;11.60;99.90;;;;;;4990909;28;20050;-80
2022/08/09 04:56:29;;;;;;;4.20;3.15;;;11.60;99.90;;;;;;5044100;28;20042;-80
2022/08/09 04:58:55;;;;;;;3.75;3.20;;;11.50;99.90;;;;;;4990311;28;20387;-79
2022/08/09 05:01:20;;;;;;;3.65;2.80;;;11.60;99.90;;;;;;4989034;28;20022;-79
2022/08/09 05:03:47;;;;;;;3.17;2.83;;;11.60;99.90;;;;;;4990664;28;20031;-79
2022/08/09 05:06:14;;;;;;;4.65;3.28;;;11.60;99.90;;;;;;4990671;28;20100;-80
2022/08/09 05:08:40;;;;;;;4.28;2.95;;;11.60;99.90;;;;;;4990561;28;20050;-80
2022/08/09 05:11:06;;;;;;;6.20;3.65;;;11.70;99.90;;;;;;4990665;28;20154;-79
2022/08/09 05:13:31;;;;;;;4.38;3.38;;;11.70;99.90;;;;;;4990443;28;20046;-80
2022/08/09 05:15:57;;;;;;;7.20;3.47;;;11.80;99.90;;;;;;4990229;28;20612;-80
2022/08/09 05:18:28;;;;;;;5.05;3.63;;;11.80;99.90;;;;;;4990149;28;20383;-80
2022/08/09 05:20:57;;;;;;;4.97;3.03;;;11.80;99.90;;;;;;4989308;28;20033;-80
2022/08/09 05:23:23;;;;;;;5.28;3.20;;;12.00;99.90;;;;;;4990471;28;20065;-80
2022/08/09 05:25:49;;;;;;;5.18;4.05;;;12.00;99.90;;;;;;4990474;28;20022;-80
2022/08/09 05:28:15;;;;;;;6.93;3.80;;;12.20;99.90;;;;;;4990397;28;20044;-80
2022/08/09 05:30:41;;;;;;;6.60;4.35;;;12.40;99.90;;;;;;4989878;28;20380;-80
2022/08/09 05:33:07;;;;;;;8.13;4.82;;;12.60;99.90;;;;;;4989800;28;20330;-80
2022/08/09 05:35:32;;;;;;;6.72;4.50;;;12.90;99.90;;;;;;4990574;28;20031;-80
2022/08/09 05:37:58;;;;;;;6.90;4.20;;;13.20;99.90;;;;;;4989956;28;20038;-80
2022/08/09 05:40:25;;;;;;;7.32;4.95;;;13.40;99.90;;;;;;4990003;28;20023;-80
2022/08/09 05:42:51;;;;;;;6.90;4.43;;;13.60;99.90;;;;;;4989677;28;20472;-80
2022/08/09 05:45:17;;;;;;;7.32;5.05;;;13.60;99.90;;;;;;4990091;28;20079;-80
2022/08/09 05:47:42;;;;;;;7.93;5.07;;;13.80;99.90;;;;;;5038269;22;20050;-72
2022/08/09 05:50:08;;;;;;;8.55;5.18;;;13.90;99.90;;;;;;4969649;28;20043;-72
2022/08/09 05:52:34;;;;;;;10.23;4.82;;;14.00;99.90;;;;;;5053201;28;20073;-72
2022/08/09 05:55:00;;;;;;;9.63;5.00;;;14.10;99.90;;;;;;4969802;28;20494;-72
2022/08/09 05:57:26;;;;;;;9.82;5.18;;;14.20;99.90;;;;;;4983002;28;20038;-72
2022/08/09 05:59:52;;;;;;;7.00;4.80;;;14.30;99.90;;;;;;4988965;28;20026;-72
2022/08/09 06:02:17;;;;;;;12.15;4.93;;;14.40;99.90;;;;;;4988499;28;20034;-72
2022/08/09 06:04:43;;;;;;;8.65;4.78;;;14.50;99.90;;;;;;4988841;28;20019;-72
2022/08/09 06:07:09;;;;;;;9.23;5.18;;;14.60;99.90;;;;;;4988358;28;20042;-72
2022/08/09 06:09:35;;;;;;;7.95;4.65;;;14.70;99.90;;;;;;4988457;28;20475;-72
2022/08/09 06:12:00;;;;;;;7.30;4.18;;;14.80;99.90;;;;;;4985517;28;20045;-72
2022/08/09 06:14:26;;;;;;;8.13;4.90;;;14.90;99.90;;;;;;4988800;28;20030;-72
2022/08/09 06:16:54;;;;;;;7.35;4.72;;;15.10;99.90;;;;;;4981567;28;20121;-72
2022/08/09 06:19:19;;;;;;;7.25;4.35;;;15.30;99.90;;;;;;4988446;28;20038;-72
2022/08/09 06:21:45;;;;;;;6.97;4.15;;;15.50;99.90;;;;;;4988590;28;20022;-72
2022/08/09 06:24:11;;;;;;;5.05;4.07;;;15.70;99.90;;;;;;4988772;28;20055;-72
2022/08/09 06:26:40;;;;;;;6.70;3.70;;;15.90;99.90;;;;;;4988534;28;20415;-72
2022/08/09 06:29:07;;;;;;;7.65;4.53;;;16.20;99.90;;;;;;4988555;28;20026;-72
2022/08/09 06:31:34;;;;;;;4.82;3.47;;;16.40;99.90;;;;;;4988998;28;20097;-72
2022/08/09 06:34:00;;;;;;;6.85;4.30;;;16.40;99.90;;;;;;4988664;28;20022;-72
2022/08/09 06:36:26;;;;;;;5.95;3.45;;;16.50;99.90;;;;;;4988453;28;20108;-72
2022/08/09 06:38:52;;;;;;;4.70;3.42;;;16.60;99.90;;;;;;4988457;28;20033;-72
2022/08/09 06:41:17;;;;;;;6.75;3.65;;;16.60;99.90;;;;;;4988166;28;20543;-72
2022/08/09 06:43:43;;;;;;;6.22;4.05;;;16.70;99.90;;;;;;4988069;28;20021;-72
2022/08/09 06:46:09;;;;;;;4.07;3.35;;;16.80;99.90;;;;;;4988554;28;20482;-72
2022/08/09 06:48:35;;;;;;;6.78;3.55;;;16.90;99.90;;;;;;5055523;28;20050;-72
2022/08/09 06:51:01;;;;;;;9.07;4.00;;;16.90;99.90;;;;;;4988350;28;20387;-72
2022/08/09 06:53:27;;;;;;;5.47;3.25;;;16.90;99.90;;;;;;4988421;28;20026;-72
2022/08/09 06:55:52;;;;;;;5.65;4.07;;;16.90;99.90;;;;;;4987576;28;20027;-72
2022/08/09 06:58:19;;;;;;;7.05;4.28;;;16.90;99.90;;;;;;4987696;28;20034;-72
2022/08/09 07:00:45;;;;;;;5.78;3.30;;;17.00;99.90;;;;;;5054847;28;20476;-72
2022/08/09 07:03:10;;;;;;;5.88;3.72;;;17.10;99.90;;;;;;4986990;28;20471;-72
2022/08/09 07:05:36;;;;;;;5.85;3.05;;;17.10;99.90;;;;;;4987187;28;20188;-72
2022/08/09 07:08:02;;;;;;;3.90;3.17;;;17.20;99.90;;;;;;4987737;28;20023;-72
2022/08/09 07:10:28;;;;;;;6.07;3.28;;;17.20;99.90;;;;;;4987467;28;20110;-72
2022/08/09 07:12:54;;;;;;;3.78;2.70;;;17.30;99.90;;;;;;4987315;28;20110;-72
2022/08/09 07:15:19;;;;;;;4.70;2.90;;;17.40;99.90;;;;;;4988115;28;20031;-72
2022/08/09 07:17:45;;;;;;;6.53;3.72;;;17.50;99.90;;;;;;5005747;23;20524;-74
2022/08/09 07:20:11;;;;;;;4.85;3.55;;;17.60;99.90;;;;;;4982897;28;20037;-74
2022/08/09 07:22:37;;;;;;;5.85;3.55;;;17.70;99.90;;;;;;4990927;28;20046;-74
2022/08/09 07:25:03;;;;;;;5.13;2.97;;;17.70;99.90;;;;;;4984712;28;20030;-74
2022/08/09 07:27:29;;;;;;;3.63;2.60;;;17.80;99.90;;;;;;4990978;28;20019;-74
2022/08/09 07:29:56;;;;;;;5.32;3.00;;;17.90;99.90;;;;;;4988978;28;20396;-74
2022/08/09 07:32:21;;;;;;;7.13;3.30;;;18.00;99.90;;;;;;4990866;28;20030;-75
2022/08/09 07:34:47;;;;;;;5.68;3.35;;;18.00;99.90;;;;;;4990195;28;20034;-74
2022/08/09 07:37:13;;;;;;;5.07;3.15;;;18.10;99.90;;;;;;4990631;28;20159;-74
2022/08/09 07:39:39;;;;;;;8.45;2.83;;;18.20;99.90;;;;;;4989842;28;20025;-74
2022/08/09 07:42:05;;;;;;;5.78;2.40;;;18.40;99.90;;;;;;4991001;28;20379;-74
2022/08/09 07:44:31;;;;;;;5.70;3.53;;;18.60;99.90;;;;;;4990363;28;20025;-74
2022/08/09 07:46:57;;;;;;;4.80;2.45;;;18.70;99.90;;;;;;4990847;28;20030;-74
2022/08/09 07:49:22;;;;;;;5.35;2.50;;;18.90;99.90;;;;;;4983985;28;20022;-75
2022/08/09 07:51:48;;;;;;;3.50;2.97;;;19.00;99.90;;;;;;4990205;28;20076;-75
2022/08/09 07:54:14;;;;;;;5.20;2.22;;;19.20;99.90;;;;;;4989590;28;20022;-75
2022/08/09 07:56:40;;;;;;;7.50;2.03;;;19.40;99.90;;;;;;4990128;28;20030;-75
2022/08/09 07:59:06;;;;;;;4.32;1.80;;;19.50;99.90;;;;;;4990410;28;20546;-75
2022/08/09 08:01:32;;;;;;;4.75;1.58;;;19.60;99.90;;;;;;4990864;28;20110;-73
2022/08/09 08:03:58;;;;;;;3.88;1.45;;;19.80;99.90;;;;;;4990319;28;20030;-74
2022/08/09 08:06:24;;;;;;;4.38;1.73;;;19.80;99.90;;;;;;4990544;28;20429;-74
2022/08/09 08:08:50;;;;;;;2.90;1.58;;;19.90;99.90;;;;;;4990952;28;20181;-74
2022/08/09 08:11:16;;;;;;;8.73;1.80;;;19.90;99.90;;;;;;4986830;28;20018;-74
2022/08/09 08:13:42;;;;;;;1.23;1.15;;;20.00;99.90;;;;;;4990560;28;20113;-74
2022/08/09 08:16:08;;;;;;;1.48;1.20;;;20.00;99.90;;;;;;5009551;22;20097;-79
2022/08/09 08:18:34;;;;;;;3.22;1.52;;;20.10;99.90;;;;;;5070756;28;20119;-79
2022/08/09 08:21:00;;;;;;;1.10;1.10;;;20.20;99.90;;;;;;5072680;28;20115;-80
2022/08/09 08:23:25;;;;;;;2.60;1.33;;;20.30;99.90;;;;;;5055091;28;20123;-79
2022/08/09 08:25:51;;;;;;;2.13;1.50;;;20.30;99.90;;;;;;5054426;28;20081;-79
2022/08/09 08:28:19;;;;;;;2.92;0.90;;;20.30;99.90;;;;;;5052784;28;20017;-79
2022/08/09 08:30:45;;;;;;;1.98;1.05;;;20.40;99.90;;;;;;5052476;28;20017;-79
2022/08/09 08:33:11;;;;;;;3.15;1.20;;;20.50;99.90;;;;;;5052541;28;20017;-80
2022/08/09 08:35:37;;;;;;;1.13;0.82;;;20.60;99.90;;;;;;5052443;28;20039;-79
2022/08/09 08:38:03;;;;;;;2.30;1.10;;;20.60;99.90;;;;;;5052222;28;20064;-79
2022/08/09 08:40:30;;;;;;;1.67;1.10;;;20.80;99.90;;;;;;5052314;28;20048;-79
2022/08/09 08:42:56;;;;;;;1.50;0.93;;;20.80;99.90;;;;;;5052322;28;20024;-80
2022/08/09 08:45:28;;;;;;;2.38;1.00;;;20.90;99.90;;;;;;5052199;28;20044;-80
2022/08/09 08:47:54;;;;;;;4.63;0.70;;;20.90;99.90;;;;;;5052315;28;20032;-80
2022/08/09 08:50:20;;;;;;;3.92;1.30;;;21.00;99.90;;;;;;5051711;28;20021;-80
2022/08/09 08:52:47;;;;;;;3.33;1.25;;;21.10;99.90;;;;;;5051734;28;20017;-80
2022/08/09 08:55:14;;;;;;;2.45;0.70;;;21.30;99.90;;;;;;5052292;28;20033;-80
2022/08/09 08:57:41;;;;;;;1.33;0.70;;;21.50;97.10;;;;;;5052050;28;20116;-80
2022/08/09 09:00:09;;;;;;;2.67;0.70;;;21.70;97.30;;;;;;5051376;28;20028;-79
2022/08/09 09:02:36;;;;;;;1.40;0.82;;;21.80;97.40;;;;;;5051381;28;20021;-80
2022/08/09 09:05:02;;;;;;;1.08;0.70;;;21.90;94.50;;;;;;5027141;28;20067;-80
2022/08/09 09:07:32;;;;;;;0.75;0.68;;;22.00;84.80;;;;;;5051690;28;20033;-79
2022/08/09 09:10:02;;;;;;;2.60;0.50;;;22.30;83.50;;;;;;5051504;28;20066;-80
2022/08/09 09:12:30;;;;;;;2.30;0.70;;;22.50;73.70;;;;;;5052429;28;20070;-79
2022/08/09 09:14:58;;;;;;;0.60;0.60;;;22.90;71.40;;;;;;5033652;28;20017;-80
2022/08/09 09:17:24;;;;;;;3.95;0.80;;;23.30;68.60;;;;;;5071309;22;20052;-74
2022/08/09 09:19:52;;;;;;;0.63;0.57;;;23.90;66.30;;;;;;5053731;28;20392;-74
2022/08/09 09:22:19;;;;;;;1.38;0.65;;;24.80;63.90;;;;;;5071486;28;20024;-74
2022/08/09 09:25:03;;;;;;;2.05;0.57;;;25.70;61.30;;;;;;5071244;28;20437;-74
2022/08/09 09:27:29;;;;;;;1.10;0.65;;;26.00;56.60;;;;;;5061277;28;20025;-74
2022/08/09 09:29:55;;;;;;;0.88;0.73;;;25.70;56.00;;;;;;5052519;28;20036;-73
2022/08/09 09:32:23;;;;;;;2.58;0.68;;;25.20;56.50;;;;;;5052165;28;20021;-74
2022/08/09 09:35:02;;;;;;;1.25;1.00;;;25.10;58.10;;;;;;5052311;28;20025;-74
2022/08/09 09:37:29;;;;;;;1.98;0.73;;;25.30;57.10;;;;;;5051958;28;20028;-74
2022/08/09 09:39:55;;;;;;;0.85;0.60;;;26.20;55.90;;;;;;5052214;28;20020;-74
2022/08/09 09:42:23;;;;;;;1.75;1.00;;;27.30;52.60;;;;;;5051515;28;20021;-74
2022/08/09 09:44:55;;;;;;;0.50;0.50;;;28.40;48.20;;;;;;5051961;28;20040;-74
2022/08/09 09:47:21;;;;;;;2.28;0.70;;;29.30;45.80;;;;;;5051511;28;20502;-74
2022/08/09 09:49:51;;;;;;;1.05;0.63;;;30.50;46.20;;;;;;5052041;28;20033;-74
2022/08/09 09:52:17;;;;;;;0.95;0.68;;;31.70;42.50;;;;;;5059073;28;20024;-74
2022/08/09 09:54:46;;;;;;;1.70;0.93;;;31.90;42.50;;;;;;5052153;28;20022;-74
2022/08/09 09:57:23;;;;;;;1.13;0.47;;;32.10;39.60;;;;;;5051780;28;20028;-74
2022/08/09 09:59:53;;;;;;;0.60;0.60;;;31.60;39.30;;;;;;5051944;28;20049;-74
2022/08/09 10:02:22;;;;;;;0.65;0.60;;;31.70;38.50;;;;;;5044536;28;20046;-74
2022/08/09 10:05:08;;;;;;;1.60;0.80;;;32.50;37.80;;;;;;5051917;28;20051;-74
2022/08/09 10:07:34;;;;;;;3.33;0.80;;;32.70;38.70;;;;;;5051799;28;20382;-74
2022/08/09 10:10:01;;;;;;;2.03;0.57;;;31.30;37.60;;;;;;5051960;28;20166;-73
2022/08/09 10:12:32;;;;;;;1.17;0.70;;;32.00;38.20;;;;;;5051346;28;20044;-74
2022/08/09 10:15:15;;;;;;;1.02;0.68;;;32.10;38.80;;;;;;5051851;28;20025;-74
2022/08/09 10:17:46;;;;;;;1.70;0.50;;;33.40;37.00;;;;;;5023515;23;20038;-79
2022/08/09 10:20:18;;;;;;;;;;;33.50;35.10;;;;;;4988791;28;20029;-79
2022/08/09 10:22:46;;;;;;;1.13;0.50;;;34.10;34.80;;;;;;4986524;28;19906;-80
2022/08/09 10:25:12;;;;;;;2.22;0.40;;;34.50;33.90;;;;;;4987344;28;20058;-80
2022/08/09 10:27:39;;;;;;;1.45;0.52;;;34.00;34.20;;;;;;4977376;28;20018;-80
2022/08/09 10:30:06;;;;;;;3.10;0.50;;;34.80;35.40;;;;;;4970110;28;20105;-80
2022/08/09 10:32:36;;;;;;;0.73;0.45;;;35.70;31.20;;;;;;4969892;28;20019;-80
2022/08/09 10:35:03;;;;;;;1.80;0.40;;;34.60;32.60;;;;;;4963745;28;20379;-80
2022/08/09 10:37:30;;;;;;;1.20;0.45;;;34.70;34.00;;;;;;4968534;28;20192;-80
2022/08/09 10:39:57;;;;;;;1.00;0.38;;;34.60;32.90;;;;;;4970031;28;20023;-80
2022/08/09 10:42:23;;;;;;;2.83;0.40;;;35.20;33.40;;;;;;4970049;28;20022;-80
2022/08/09 10:44:58;;;;;;;0.57;0.43;;;37.20;32.70;;;;;;4969923;28;20023;-80
2022/08/09 10:47:59;;;;;;;1.60;0.40;;;37.70;29.80;;;;;;4969451;28;20026;-80
2022/08/09 10:53:38;;;;;;;0.98;0.40;;;35.70;30.60;;;;;;4964252;28;20088;-79
2022/08/09 10:56:17;;;;;;;0.40;0.40;;;36.20;29.60;;;;;;4967877;28;20072;-80
2022/08/09 10:58:43;;;;;;;0.52;0.30;;;36.50;30.20;;;;;;4967051;28;20590;-80
2022/08/09 11:01:31;;;;;;;0.57;0.40;;;37.50;28.50;;;;;;4973519;28;20026;-78
2022/08/09 11:04:09;;;;;;;1.17;0.40;;;38.40;27.20;;;;;;4973253;28;20033;-78
2022/08/09 11:06:39;;;;;;;1.27;0.30;;;39.10;26.60;;;;;;4973476;28;20038;-78
2022/08/09 11:09:06;;;;;;;1.52;0.43;;;39.20;27.60;;;;;;4973269;28;20023;-78
2022/08/09 11:11:54;;;;;;;0.57;0.20;;;37.90;26.80;;;;;;4973360;28;20530;-78
2022/08/09 11:14:34;;;;;;;1.85;0.60;;;37.80;28.10;;;;;;4968180;28;20482;-78
2022/08/09 11:17:01;;;;;;;1.33;0.50;;;38.70;28.30;;;;;;5020720;23;20074;-74
2022/08/09 11:19:58;;;;;;;0.73;0.20;;;39.10;26.00;;;;;;5073671;28;20060;-74
2022/08/09 11:22:39;;;;;;;1.60;0.50;;;39.50;25.10;;;;;;5049741;28;20024;-74
2022/08/09 11:25:11;;;;;;;1.02;0.20;;;38.10;27.50;;;;;;5067628;28;20023;-74
2022/08/09 11:27:40;;;;;;;1.73;0.30;;;38.90;27.30;;;;;;5073658;28;20016;-74
2022/08/09 11:30:11;;;;;;;3.40;0.30;;;39.90;26.70;;;;;;5074324;28;20032;-74
2022/08/09 11:32:49;;;;;;;1.55;0.30;;;40.40;25.30;;;;;;5073684;28;20020;-74
2022/08/09 11:35:18;;;;;;;1.13;0.25;;;40.80;24.60;;;;;;5074325;28;20060;-74
2022/08/09 11:37:45;;;;;;;0.75;0.20;;;40.80;24.30;;;;;;5055431;28;20040;-74
2022/08/09 11:40:14;;;;;;;0.20;0.20;;;40.70;24.70;;;;;;5073955;28;20500;-74
2022/08/09 11:42:44;;;;;;;1.25;0.30;;;40.30;23.70;;;;;;5073573;28;20539;-75
2022/08/09 11:45:21;;;;;;;0.50;0.20;;;40.70;24.50;;;;;;5073998;28;20033;-74
2022/08/09 11:47:49;;;;;;;0.82;0.38;;;41.00;23.60;;;;;;5066767;28;20023;-74
2022/08/09 11:50:14;;;;;;;2.30;0.55;;;40.60;23.50;;;;;;5073641;28;20020;-74
2022/08/09 11:53:03;;;;;;;1.25;0.20;;;40.40;23.60;;;;;;5073581;28;20017;-74
2022/08/09 11:55:32;;;;;;;1.05;0.35;;;40.70;24.10;;;;;;5062713;28;20087;-74
2022/08/09 11:58:15;;;;;;;2.17;0.40;;;39.40;23.60;;;;;;5055576;28;20033;-74
2022/08/09 12:00:58;;;;;;;0.20;0.10;;;39.50;25.10;;;;;;5068322;28;20070;-74
2022/08/09 12:03:25;;;;;;;1.15;0.30;;;40.60;23.20;;;;;;5049975;28;20093;-73
2022/08/09 12:05:54;;;;;;;0.68;0.40;;;40.20;23.90;;;;;;5072874;28;20022;-74
2022/08/09 12:08:21;;;;;;;0.60;0.20;;;40.60;22.80;;;;;;5073204;28;20078;-74
2022/08/09 12:10:55;;;;;;;1.27;0.38;;;40.60;23.10;;;;;;5073465;28;20462;-74
2022/08/09 12:13:28;;;;;;;1.63;0.30;;;40.30;22.80;;;;;;5072461;28;20020;-74
2022/08/09 12:18:49;;;;;;;1.10;0.30;;;40.00;23.00;;;;;;5051456;28;20049;-78
2022/08/09 12:21:27;;;;;;;2.28;0.20;;;40.50;22.70;;;;;;5054151;28;20111;-78
2022/08/09 12:23:53;;;;;;;0.85;0.30;;;41.80;23.80;;;;;;5036003;28;20021;-78
2022/08/09 12:26:20;;;;;;;2.85;0.22;;;42.10;23.20;;;;;;5055418;28;20056;-78
2022/08/09 12:28:51;;;;;;;1.60;0.20;;;42.80;21.70;;;;;;5073437;28;20012;-78
2022/08/09 12:31:19;;;;;;;0.63;0.20;;;42.70;22.50;;;;;;5055906;28;20020;-79
2022/08/09 12:33:45;;;;;;;0.55;0.30;;;42.80;21.20;;;;;;5055286;28;20013;-80
2022/08/09 12:36:11;;;;;;;1.25;0.40;;;42.00;21.10;;;;;;5073780;28;20028;-79
2022/08/09 12:38:37;;;;;;;0.32;0.28;;;40.50;22.00;;;;;;5080710;28;20031;-78
2022/08/09 12:41:03;;;;;;;1.27;0.30;;;40.90;21.60;;;;;;5073367;28;20040;-79
2022/08/09 12:43:29;;;;;;;1.38;0.30;;;40.80;22.70;;;;;;5073218;28;20016;-79
2022/08/09 12:45:57;;;;;;;1.48;0.60;;;41.00;22.20;;;;;;5066453;28;20021;-79
2022/08/09 12:48:25;;;;;;;0.38;0.17;;;39.90;22.50;;;;;;5073066;28;20052;-79
2022/08/09 12:50:52;;;;;;;3.42;0.60;;;40.70;23.30;;;;;;5055302;28;20454;-79
2022/08/09 12:53:38;;;;;;;1.27;0.30;;;41.00;22.10;;;;;;5055405;28;20032;-79
2022/08/09 12:56:18;;;;;;;0.95;0.40;;;42.00;22.20;;;;;;5049331;28;20063;-79
2022/08/09 12:59:08;;;;;;;0.70;0.32;;;42.00;21.50;;;;;;5066871;28;20137;-79
2022/08/09 13:01:35;;;;;;;2.47;0.20;;;40.80;22.90;;;;;;5067566;28;20025;-78
2022/08/09 13:04:03;;;;;;;1.48;0.40;;;41.30;23.80;;;;;;5055284;28;20473;-78